Time,TemperatureF,DewpointF,PressureIn,WindDirection,WindDirectionDegrees,WindSpeedMPH,WindSpeedGustMPH,Humidity,HourlyPrecipIn,Conditions,Clouds,dailyrainin,SolarRadiationWatts/m^2,SoftwareType,DateUTC
2013-01-24 00:12:00,42.0,-9.0,-100.00,West,267,12.0,20.0,11,0.00,,,0.00,0.000000,,2013-01-24 07:12:00,
2013-01-24 00:23:00,42.0,-9.0,-100.00,West,267,12.0,20.0,11,0.00,,,0.00,0.000000,,2013-01-24 07:23:00,
2013-01-24 00:33:00,42.0,-9.0,-100.00,West,267,12.0,20.0,11,0.00,,,0.00,0.000000,,2013-01-24 07:33:00,
2013-01-24 00:42:00,42.0,-9.0,-100.00,West,267,12.0,20.0,11,0.00,,,0.00,0.000000,,2013-01-24 07:42:00,
2013-01-24 01:12:00,38.0,-10.0,-100.00,WSW,252,6.0,15.0,12,0.00,,,0.00,0.000000,,2013-01-24 08:12:00,
2013-01-24 01:23:00,38.0,-10.0,-100.00,WSW,252,6.0,15.0,12,0.00,,,0.00,0.000000,,2013-01-24 08:23:00,
2013-01-24 01:33:00,38.0,-10.0,-100.00,WSW,252,6.0,15.0,12,0.00,,,0.00,0.000000,,2013-01-24 08:33:00,
2013-01-24 01:42:00,38.0,-10.0,-100.00,WSW,252,6.0,15.0,12,0.00,,,0.00,0.000000,,2013-01-24 08:42:00,
2013-01-24 02:13:00,40.0,-7.0,-100.00,SSW,202,5.0,11.0,13,0.00,,,0.00,0.000000,,2013-01-24 09:13:00,
2013-01-24 02:23:00,40.0,-7.0,-100.00,SSW,202,5.0,11.0,13,0.00,,,0.00,0.000000,,2013-01-24 09:23:00,
2013-01-24 02:33:00,40.0,-7.0,-100.00,SSW,202,5.0,11.0,13,0.00,,,0.00,0.000000,,2013-01-24 09:33:00,
2013-01-24 02:43:00,40.0,-7.0,-100.00,SSW,202,5.0,11.0,13,0.00,,,0.00,0.000000,,2013-01-24 09:43:00,
2013-01-24 03:12:00,38.0,-5.0,-100.00,SW,236,10.0,17.0,15,0.00,,,0.00,0.000000,,2013-01-24 10:12:00,
2013-01-24 03:23:00,38.0,-5.0,-100.00,SW,236,10.0,17.0,15,0.00,,,0.00,0.000000,,2013-01-24 10:23:00,
2013-01-24 03:33:00,38.0,-5.0,-100.00,SW,236,10.0,17.0,15,0.00,,,0.00,0.000000,,2013-01-24 10:33:00,
2013-01-24 03:43:00,38.0,-5.0,-100.00,SW,236,10.0,17.0,15,0.00,,,0.00,0.000000,,2013-01-24 10:43:00,
2013-01-24 04:12:00,40.0,-5.0,-100.00,WNW,283,4.0,20.0,14,0.00,,,0.00,0.000000,,2013-01-24 11:12:00,
2013-01-24 04:23:00,40.0,-5.0,-100.00,WNW,283,4.0,20.0,14,0.00,,,0.00,0.000000,,2013-01-24 11:23:00,
2013-01-24 04:33:00,40.0,-5.0,-100.00,WNW,283,4.0,20.0,14,0.00,,,0.00,0.000000,,2013-01-24 11:33:00,
2013-01-24 04:43:00,40.0,-5.0,-100.00,WNW,283,4.0,20.0,14,0.00,,,0.00,0.000000,,2013-01-24 11:43:00,
2013-01-24 05:12:00,38.0,2.0,-100.00,NNE,13,2.0,9.0,21,0.00,,,0.00,0.000000,,2013-01-24 12:12:00,
2013-01-24 05:23:00,38.0,2.0,-100.00,NNE,13,2.0,9.0,21,0.00,,,0.00,0.000000,,2013-01-24 12:23:00,
2013-01-24 05:33:00,38.0,2.0,-100.00,NNE,13,2.0,9.0,21,0.00,,,0.00,0.000000,,2013-01-24 12:33:00,
2013-01-24 05:43:00,38.0,2.0,-100.00,NNE,13,2.0,9.0,21,0.00,,,0.00,0.000000,,2013-01-24 12:43:00,
2013-01-24 06:13:00,38.0,4.0,-100.00,West,260,4.0,14.0,23,0.00,,,0.00,0.000000,,2013-01-24 13:13:00,
2013-01-24 06:23:00,38.0,4.0,-100.00,West,260,4.0,14.0,23,0.00,,,0.00,0.000000,,2013-01-24 13:23:00,
2013-01-24 06:33:00,38.0,4.0,-100.00,West,260,4.0,14.0,23,0.00,,,0.00,0.000000,,2013-01-24 13:33:00,
2013-01-24 06:43:00,38.0,4.0,-100.00,West,260,4.0,14.0,23,0.00,,,0.00,0.000000,,2013-01-24 13:43:00,
2013-01-24 07:12:00,37.0,4.0,-100.00,SSE,162,4.0,11.0,25,0.00,,,-99.99,0.000000,,2013-01-24 14:12:00,
2013-01-24 07:23:00,37.0,4.0,-100.00,SSE,162,4.0,11.0,25,0.00,,,-99.99,0.000000,,2013-01-24 14:23:00,
2013-01-24 07:33:00,37.0,4.0,-100.00,SSE,162,4.0,11.0,25,0.00,,,-99.99,0.000000,,2013-01-24 14:33:00,
2013-01-24 07:43:00,37.0,4.0,-100.00,SSE,162,4.0,11.0,25,0.00,,,-99.99,0.000000,,2013-01-24 14:43:00,
2013-01-24 08:12:00,37.0,4.0,-100.00,SW,228,3.0,13.0,25,0.00,,,0.00,1.000000,,2013-01-24 15:12:00,
2013-01-24 08:23:00,37.0,4.0,-100.00,SW,228,3.0,13.0,25,0.00,,,0.00,1.000000,,2013-01-24 15:23:00,
2013-01-24 08:33:00,37.0,4.0,-100.00,SW,228,3.0,13.0,25,0.00,,,0.00,1.000000,,2013-01-24 15:33:00,
2013-01-24 08:43:00,37.0,4.0,-100.00,SW,228,3.0,13.0,25,0.00,,,0.00,1.000000,,2013-01-24 15:43:00,
2013-01-24 09:12:00,37.0,7.0,-100.00,SSW,199,4.0,11.0,28,0.00,,,0.00,26.000000,,2013-01-24 16:12:00,
2013-01-24 09:23:00,37.0,7.0,-100.00,SSW,199,4.0,11.0,28,0.00,,,0.00,26.000000,,2013-01-24 16:23:00,
2013-01-24 09:33:00,37.0,7.0,-100.00,SSW,199,4.0,11.0,28,0.00,,,0.00,26.000000,,2013-01-24 16:33:00,
2013-01-24 09:42:00,37.0,7.0,-100.00,SSW,199,4.0,11.0,28,0.00,,,0.00,26.000000,,2013-01-24 16:42:00,
2013-01-24 10:12:00,38.0,9.0,-100.00,SE,124,4.0,13.0,30,0.00,,,0.00,49.000000,,2013-01-24 17:12:00,
2013-01-24 10:22:00,38.0,9.0,-100.00,SE,124,4.0,13.0,30,0.00,,,0.00,49.000000,,2013-01-24 17:22:00,
2013-01-24 10:32:00,38.0,9.0,-100.00,SE,124,4.0,13.0,30,0.00,,,0.00,49.000000,,2013-01-24 17:32:00,
2013-01-24 10:42:00,38.0,9.0,-100.00,SE,124,4.0,13.0,30,0.00,,,0.00,49.000000,,2013-01-24 17:42:00,
2013-01-24 11:12:00,39.0,11.0,-100.00,NNE,16,7.0,17.0,31,0.00,,,0.00,172.000000,,2013-01-24 18:12:00,
2013-01-24 11:22:00,39.0,11.0,-100.00,NNE,16,7.0,17.0,31,0.00,,,0.00,172.000000,,2013-01-24 18:22:00,
2013-01-24 11:33:00,39.0,11.0,-100.00,NNE,16,7.0,17.0,31,0.00,,,0.00,172.000000,,2013-01-24 18:33:00,
2013-01-24 11:42:00,39.0,11.0,-100.00,NNE,16,7.0,17.0,31,0.00,,,0.00,172.000000,,2013-01-24 18:42:00,
2013-01-24 12:12:00,41.0,14.0,-100.00,SW,235,9.0,18.0,33,0.00,,,0.00,274.000000,,2013-01-24 19:12:00,
2013-01-24 12:22:00,41.0,14.0,-100.00,SW,235,9.0,18.0,33,0.00,,,0.00,274.000000,,2013-01-24 19:22:00,
2013-01-24 12:33:00,41.0,14.0,-100.00,SW,235,9.0,18.0,33,0.00,,,0.00,274.000000,,2013-01-24 19:33:00,
2013-01-24 12:42:00,41.0,14.0,-100.00,SW,235,9.0,18.0,33,0.00,,,0.00,274.000000,,2013-01-24 19:42:00,
2013-01-24 13:11:00,40.0,16.0,-100.00,NW,318,5.0,18.0,37,0.00,,,0.00,298.000000,,2013-01-24 20:11:00,
2013-01-24 13:22:00,40.0,16.0,-100.00,NW,318,5.0,18.0,37,0.00,,,0.00,298.000000,,2013-01-24 20:22:00,
2013-01-24 13:32:00,40.0,16.0,-100.00,NW,318,5.0,18.0,37,0.00,,,0.00,298.000000,,2013-01-24 20:32:00,
2013-01-24 13:42:00,40.0,16.0,-100.00,NW,318,5.0,18.0,37,0.00,,,0.00,298.000000,,2013-01-24 20:42:00,
2013-01-24 14:02:00,37.0,14.0,-100.00,North,359,6.0,12.0,38,0.00,,,0.00,217.000000,,2013-01-24 21:02:00,
2013-01-24 14:12:00,37.0,14.0,-100.00,North,359,6.0,12.0,38,0.00,,,0.00,217.000000,,2013-01-24 21:12:00,
2013-01-24 14:22:00,37.0,14.0,-100.00,North,359,6.0,12.0,38,0.00,,,0.00,217.000000,,2013-01-24 21:22:00,
2013-01-24 14:33:00,37.0,14.0,-100.00,North,359,6.0,12.0,38,0.00,,,0.00,217.000000,,2013-01-24 21:33:00,
2013-01-24 14:43:00,37.0,14.0,-100.00,North,359,6.0,12.0,38,0.00,,,0.00,217.000000,,2013-01-24 21:43:00,
2013-01-24 15:12:00,37.0,16.0,-100.00,West,279,12.0,18.0,41,0.00,,,0.00,176.000000,,2013-01-24 22:12:00,
2013-01-24 15:22:00,37.0,16.0,-100.00,West,279,12.0,18.0,41,0.00,,,0.00,176.000000,,2013-01-24 22:22:00,
2013-01-24 15:32:00,37.0,16.0,-100.00,West,279,12.0,18.0,41,0.00,,,0.00,176.000000,,2013-01-24 22:32:00,
2013-01-24 15:42:00,37.0,16.0,-100.00,West,279,12.0,18.0,41,0.00,,,0.00,176.000000,,2013-01-24 22:42:00,
2013-01-24 16:12:00,32.0,13.0,-100.00,East,94,3.0,21.0,45,0.00,,,0.00,138.000000,,2013-01-24 23:12:00,
2013-01-24 16:22:00,32.0,13.0,-100.00,East,94,3.0,21.0,45,0.00,,,0.00,138.000000,,2013-01-24 23:22:00,
2013-01-24 16:32:00,32.0,13.0,-100.00,East,94,3.0,21.0,45,0.00,,,0.00,138.000000,,2013-01-24 23:32:00,
2013-01-24 16:42:00,32.0,13.0,-100.00,East,94,3.0,21.0,45,0.00,,,0.00,138.000000,,2013-01-24 23:42:00,
2013-01-24 17:12:00,31.0,13.0,-100.00,SW,233,5.0,18.0,46,0.00,,,0.00,32.000000,,2013-01-25 00:12:00,
2013-01-24 17:22:00,31.0,13.0,-100.00,SW,233,5.0,18.0,46,0.00,,,0.00,32.000000,,2013-01-25 00:22:00,
2013-01-24 17:32:00,31.0,13.0,-100.00,SW,233,5.0,18.0,46,0.00,,,0.00,32.000000,,2013-01-25 00:32:00,
2013-01-24 17:42:00,31.0,13.0,-100.00,SW,233,5.0,18.0,46,0.00,,,0.00,32.000000,,2013-01-25 00:42:00,
2013-01-24 18:12:00,28.0,14.0,-100.00,NNW,347,4.0,11.0,54,0.00,,,0.00,4.000000,,2013-01-25 01:12:00,
2013-01-24 18:22:00,28.0,14.0,-100.00,NNW,347,4.0,11.0,54,0.00,,,0.00,4.000000,,2013-01-25 01:22:00,
2013-01-24 18:32:00,28.0,14.0,-100.00,NNW,347,4.0,11.0,54,0.00,,,0.00,4.000000,,2013-01-25 01:32:00,
2013-01-24 18:42:00,28.0,14.0,-100.00,NNW,347,4.0,11.0,54,0.00,,,0.00,4.000000,,2013-01-25 01:42:00,
2013-01-24 19:02:00,24.0,14.0,-100.00,NE,37,4.0,7.0,66,0.00,,,0.00,0.000000,,2013-01-25 02:02:00,
2013-01-24 19:11:00,24.0,14.0,-100.00,NE,37,4.0,7.0,66,0.00,,,0.00,0.000000,,2013-01-25 02:11:00,
2013-01-24 19:22:00,24.0,14.0,-100.00,NE,37,4.0,7.0,66,0.00,,,0.00,0.000000,,2013-01-25 02:22:00,
2013-01-24 19:32:00,24.0,14.0,-100.00,NE,37,4.0,7.0,66,0.00,,,0.00,0.000000,,2013-01-25 02:32:00,
2013-01-24 19:42:00,24.0,14.0,-100.00,NE,37,4.0,7.0,66,0.00,,,0.00,0.000000,,2013-01-25 02:42:00,
2013-01-24 20:12:00,25.0,19.0,-100.00,SSW,213,3.0,10.0,78,0.00,,,0.00,0.000000,,2013-01-25 03:12:00,
2013-01-24 20:22:00,25.0,19.0,-100.00,SSW,213,3.0,10.0,78,0.00,,,0.00,0.000000,,2013-01-25 03:22:00,
2013-01-24 20:33:00,25.0,19.0,-100.00,SSW,213,3.0,10.0,78,0.00,,,0.00,0.000000,,2013-01-25 03:33:00,
2013-01-24 20:42:00,25.0,19.0,-100.00,SSW,213,3.0,10.0,78,0.00,,,0.00,0.000000,,2013-01-25 03:42:00,
2013-01-24 21:12:00,24.0,17.0,-100.00,SE,131,4.0,12.0,73,0.00,,,0.00,0.000000,,2013-01-25 04:12:00,
2013-01-24 21:22:00,24.0,17.0,-100.00,SE,131,4.0,12.0,73,0.00,,,0.00,0.000000,,2013-01-25 04:22:00,
2013-01-24 21:32:00,24.0,17.0,-100.00,SE,131,4.0,12.0,73,0.00,,,0.00,0.000000,,2013-01-25 04:32:00,
2013-01-24 21:42:00,24.0,17.0,-100.00,SE,131,4.0,12.0,73,0.00,,,0.00,0.000000,,2013-01-25 04:42:00,
2013-01-24 22:12:00,28.0,12.0,-100.00,North,358,3.0,10.0,51,0.00,,,0.00,0.000000,,2013-01-25 05:12:00,
2013-01-24 22:22:00,28.0,12.0,-100.00,North,358,3.0,10.0,51,0.00,,,0.00,0.000000,,2013-01-25 05:22:00,
2013-01-24 22:32:00,28.0,12.0,-100.00,North,358,3.0,10.0,51,0.00,,,0.00,0.000000,,2013-01-25 05:32:00,
2013-01-24 22:43:00,28.0,12.0,-100.00,North,358,3.0,10.0,51,0.00,,,0.00,0.000000,,2013-01-25 05:43:00,
2013-01-24 23:11:00,29.0,11.0,-100.00,NNW,337,8.0,12.0,46,0.00,,,0.00,0.000000,,2013-01-25 06:11:00,
2013-01-24 23:21:00,29.0,11.0,-100.00,NNW,337,8.0,12.0,46,0.00,,,0.00,0.000000,,2013-01-25 06:21:00,
2013-01-24 23:32:00,29.0,11.0,-100.00,NNW,337,8.0,12.0,46,0.00,,,0.00,0.000000,,2013-01-25 06:32:00,
2013-01-24 23:42:00,29.0,11.0,-100.00,NNW,337,8.0,12.0,46,0.00,,,0.00,0.000000,,2013-01-25 06:42:00,